createdAt,value
2023-01-05T00:01:57.013Z,101828.91
2023-01-05T00:04:27.510Z,101832.47
2023-01-05T00:06:54.916Z,101831.91
2023-01-05T00:09:24.563Z,101826.34
2023-01-05T00:12:10.333Z,101830.28
2023-01-05T00:14:56.186Z,101828.09
2023-01-05T00:17:43.955Z,101829.81
2023-01-05T00:20:38.073Z,101829.00
2023-01-05T00:23:06.611Z,101822.53
2023-01-05T00:25:37.982Z,101812.06
2023-01-05T00:28:05.371Z,101811.59
2023-01-05T00:30:38.407Z,101814.06
2023-01-05T00:33:09.243Z,101812.88
2023-01-05T00:35:38.913Z,101803.94
2023-01-05T00:38:07.634Z,101797.06
2023-01-05T00:40:35.740Z,101808.69
2023-01-05T00:43:08.053Z,101810.31
2023-01-05T00:45:37.851Z,101796.31
2023-01-05T00:48:08.482Z,101793.13
2023-01-05T00:50:43.646Z,101789.81
2023-01-05T00:53:11.028Z,101786.09
2023-01-05T00:55:38.378Z,101790.13
2023-01-05T00:58:08.071Z,101790.13
2023-01-05T01:00:45.563Z,101789.00
2023-01-05T01:03:17.785Z,101778.91
2023-01-05T01:05:58.656Z,101773.19
2023-01-05T01:08:25.950Z,101778.84
2023-01-05T01:10:56.357Z,101777.63
2023-01-05T01:13:26.224Z,101772.72
2023-01-05T01:15:56.536Z,101776.28
2023-01-05T01:18:26.594Z,101767.38
2023-01-05T01:20:54.113Z,101776.66
2023-01-05T01:23:26.134Z,101761.72
2023-01-05T01:26:02.706Z,101769.00
2023-01-05T01:28:33.017Z,101765.72
2023-01-05T01:31:01.212Z,101769.47
2023-01-05T01:33:29.354Z,101764.91
2023-01-05T01:35:59.823Z,101762.53
2023-01-05T01:38:27.142Z,101771.00
2023-01-05T01:40:59.327Z,101769.00
2023-01-05T01:43:50.411Z,101769.09
2023-01-05T01:46:23.729Z,101769.56
2023-01-05T01:49:08.902Z,101765.06
2023-01-05T01:51:44.825Z,101761.34
2023-01-05T01:54:16.103Z,101752.88
2023-01-05T01:56:50.995Z,101753.78
2023-01-05T01:59:21.556Z,101758.91
2023-01-05T02:01:54.996Z,101752.88
2023-01-05T02:04:26.225Z,101753.25
2023-01-05T02:06:59.811Z,101746.59
2023-01-05T02:09:29.796Z,101739.84
2023-01-05T02:12:07.430Z,101740.91
2023-01-05T02:15:00.448Z,101738.97
2023-01-05T02:17:46.665Z,101731.31
2023-01-05T02:20:43.188Z,101728.25
2023-01-05T02:23:54.763Z,101708.34
2023-01-05T02:26:38.388Z,101712.13
2023-01-05T02:29:42.330Z,101702.81
2023-01-05T02:32:14.174Z,101707.34
2023-01-05T02:35:09.085Z,101705.09
2023-01-05T02:37:53.437Z,101703.75
2023-01-05T02:40:32.135Z,101684.16
2023-01-05T02:43:04.349Z,101679.31
2023-01-05T02:45:32.672Z,101681.00
2023-01-05T02:48:01.614Z,101672.84
2023-01-05T02:51:03.665Z,101665.63
2023-01-05T02:53:38.236Z,101668.19
2023-01-05T02:56:15.945Z,101668.00
2023-01-05T02:58:54.914Z,101665.47
2023-01-05T03:01:33.983Z,101659.97
2023-01-05T03:04:07.455Z,101660.22
2023-01-05T03:06:49.827Z,101658.31
2023-01-05T03:09:20.169Z,101657.97
2023-01-05T03:12:29.622Z,101647.97
2023-01-05T03:15:03.738Z,101636.22
2023-01-05T03:17:48.589Z,101633.00
2023-01-05T03:20:23.042Z,101635.41
2023-01-05T03:23:10.905Z,101625.19
2023-01-05T03:25:58.751Z,101618.50
2023-01-05T03:29:00.318Z,101611.28
2023-01-05T03:31:59.199Z,101625.34
2023-01-05T03:35:09.289Z,101618.50
2023-01-05T03:37:48.367Z,101615.78
2023-01-05T03:40:23.059Z,101601.03
2023-01-05T03:42:56.768Z,101615.03
2023-01-05T03:45:26.806Z,101605.50
2023-01-05T03:47:56.047Z,101600.25
2023-01-05T03:50:29.117Z,101594.78
2023-01-05T03:52:56.510Z,101595.00
2023-01-05T03:55:26.893Z,101586.47
2023-01-05T03:57:55.069Z,101584.63
2023-01-05T04:00:25.708Z,101584.72
2023-01-05T04:03:00.745Z,101575.25
2023-01-05T04:05:31.414Z,101579.66
2023-01-05T04:08:05.057Z,101590.84
2023-01-05T04:10:56.482Z,101584.41
2023-01-05T04:13:26.384Z,101585.53
2023-01-05T04:15:55.895Z,101581.81
2023-01-05T04:18:26.393Z,101583.91
2023-01-05T04:20:56.468Z,101588.81
2023-01-05T04:23:27.776Z,101586.78
2023-01-05T04:26:00.951Z,101587.22
2023-01-05T04:28:30.743Z,101589.16
2023-01-05T04:31:01.599Z,101585.44
2023-01-05T04:33:30.504Z,101596.28
2023-01-05T04:35:58.397Z,101589.00
2023-01-05T04:38:28.739Z,101587.38
2023-01-05T04:40:56.928Z,101593.47
2023-01-05T04:43:28.692Z,101594.34
2023-01-05T04:46:04.399Z,101587.47
2023-01-05T04:48:37.523Z,101591.38
2023-01-05T04:51:06.662Z,101582.47
2023-01-05T04:53:39.659Z,101589.38
2023-01-05T04:56:12.831Z,101581.75
2023-01-05T04:58:44.707Z,101582.03
2023-01-05T05:01:13.226Z,101585.97
2023-01-05T05:03:44.572Z,101589.75
2023-01-05T05:06:19.416Z,101581.28
2023-01-05T05:08:51.200Z,101584.47
2023-01-05T05:11:21.166Z,101577.66
2023-01-05T05:13:51.957Z,101581.75
2023-01-05T05:16:21.628Z,101573.28
2023-01-05T05:18:52.798Z,101583.38
2023-01-05T05:21:26.409Z,101580.47
2023-01-05T05:23:56.581Z,101588.13
2023-01-05T05:26:27.025Z,101590.50
2023-01-05T05:28:59.331Z,101586.47
2023-01-05T05:31:29.721Z,101584.84
2023-01-05T05:33:57.078Z,101589.59
2023-01-05T05:36:27.473Z,101585.19
2023-01-05T05:38:58.791Z,101580.75
2023-01-05T05:41:27.058Z,101590.03
2023-01-05T05:43:54.646Z,101585.13
2023-01-05T05:46:21.969Z,101581.56
2023-01-05T05:48:49.239Z,101577.13
2023-01-05T05:51:18.867Z,101571.00
2023-01-05T05:53:49.173Z,101578.66
2023-01-05T05:56:20.134Z,101578.25
2023-01-05T05:58:47.461Z,101579.88
2023-01-05T06:01:17.278Z,101586.78
2023-01-05T06:03:47.038Z,101586.31
2023-01-05T06:06:17.227Z,101588.69
2023-01-05T06:08:47.664Z,101581.13
2023-01-05T06:11:15.783Z,101585.13
2023-01-05T06:13:46.191Z,101590.41
2023-01-05T06:16:16.313Z,101578.31
2023-01-05T06:18:46.034Z,101576.31
2023-01-05T06:21:21.385Z,101578.38
2023-01-05T06:23:53.846Z,101575.03
2023-01-05T06:26:23.433Z,101572.22
2023-01-05T06:28:53.701Z,101564.56
2023-01-05T06:31:24.209Z,101566.56
2023-01-05T06:33:54.766Z,101570.59
2023-01-05T06:36:28.519Z,101568.66
2023-01-05T06:39:01.156Z,101567.84
2023-01-05T06:41:29.972Z,101562.19
2023-01-05T06:44:01.121Z,101567.38
2023-01-05T06:46:33.807Z,101559.00
2023-01-05T06:49:02.981Z,101552.09
2023-01-05T06:51:32.975Z,101549.34
2023-01-05T06:54:03.643Z,101554.81
2023-01-05T06:56:34.238Z,101561.00
2023-01-05T06:59:04.156Z,101551.72
2023-01-05T07:01:33.995Z,101560.09
2023-01-05T07:04:04.237Z,101559.56
2023-01-05T07:06:31.935Z,101551.28
2023-01-05T07:09:02.191Z,101553.53
2023-01-05T07:11:32.871Z,101558.50
2023-01-05T07:14:05.558Z,101561.41
2023-01-05T07:16:36.086Z,101554.56
2023-01-05T07:19:03.918Z,101554.47
2023-01-05T07:21:31.656Z,101565.97
2023-01-05T07:24:06.588Z,101568.19
2023-01-05T07:26:37.655Z,101568.06
2023-01-05T07:29:08.451Z,101563.81
2023-01-05T07:31:36.482Z,101563.13
2023-01-05T07:34:09.516Z,101562.84
2023-01-05T07:36:43.211Z,101566.94
2023-01-05T07:39:13.223Z,101563.66
2023-01-05T07:41:41.175Z,101558.94
2023-01-05T07:44:12.407Z,101565.22
2023-01-05T07:46:40.733Z,101565.44
2023-01-05T07:49:14.929Z,101563.25
2023-01-05T07:51:43.000Z,101563.84
2023-01-05T07:54:16.581Z,101558.13
2023-01-05T07:56:44.534Z,101562.38
2023-01-05T07:59:12.472Z,101557.22
2023-01-05T08:01:40.463Z,101560.31
2023-01-05T08:04:12.665Z,101561.91
2023-01-05T08:06:43.591Z,101568.31
2023-01-05T08:09:32.890Z,101573.88
2023-01-05T08:12:06.692Z,101571.53
2023-01-05T08:14:40.702Z,101571.38
2023-01-05T08:17:11.860Z,101575.75
2023-01-05T08:19:46.310Z,101568.81
2023-01-05T08:22:17.110Z,101556.03
2023-01-05T08:24:52.682Z,101561.00
2023-01-05T08:27:21.638Z,101562.47
2023-01-05T08:30:05.511Z,101551.34
2023-01-05T08:32:33.341Z,101556.84
2023-01-05T08:35:06.467Z,101553.69
2023-01-05T08:37:37.468Z,101554.00
2023-01-05T08:40:09.363Z,101554.31
2023-01-05T08:42:38.711Z,101560.69
2023-01-05T08:45:10.581Z,101557.88
2023-01-05T08:47:41.854Z,101560.81
2023-01-05T08:50:14.576Z,101553.09
2023-01-05T08:52:49.359Z,101562.69
2023-01-05T08:55:17.925Z,101561.25
2023-01-05T08:57:49.291Z,101556.84
2023-01-05T09:00:25.330Z,101562.69
2023-01-05T09:03:03.971Z,101559.63
2023-01-05T09:05:32.656Z,101563.69
2023-01-05T09:08:00.819Z,101576.38
2023-01-05T09:10:34.146Z,101564.66
2023-01-05T09:13:05.415Z,101558.63
2023-01-05T09:15:43.003Z,101561.72
2023-01-05T09:18:14.413Z,101562.19
2023-01-05T09:20:45.072Z,101566.50
2023-01-05T09:23:13.356Z,101556.94
2023-01-05T09:25:41.820Z,101566.72
2023-01-05T09:28:13.374Z,101569.97
2023-01-05T09:30:50.595Z,101567.53
2023-01-05T09:33:26.472Z,101565.53
2023-01-05T09:35:58.817Z,101563.84
2023-01-05T09:38:27.045Z,101570.75
2023-01-05T09:41:10.161Z,101563.69
2023-01-05T09:43:49.529Z,101566.69
2023-01-05T09:46:24.418Z,101575.13
2023-01-05T09:49:00.294Z,101557.97
2023-01-05T09:51:34.050Z,101551.97
2023-01-05T09:54:08.560Z,101553.69
2023-01-05T09:57:08.573Z,101550.78
2023-01-05T09:59:43.534Z,101552.56
2023-01-05T10:02:37.635Z,101550.50
2023-01-05T10:05:07.056Z,101545.94
2023-01-05T10:07:58.914Z,101538.16
2023-01-05T10:11:14.896Z,101532.88
2023-01-05T10:13:55.473Z,101532.34
2023-01-05T10:16:31.615Z,101529.31
2023-01-05T10:19:07.147Z,101524.97
2023-01-05T10:22:06.221Z,101529.94
2023-01-05T10:24:46.630Z,101528.94
2023-01-05T10:27:45.628Z,101517.91
2023-01-05T10:30:42.110Z,101525.75
2023-01-05T10:33:39.021Z,101530.06
2023-01-05T10:37:06.884Z,101524.72
2023-01-05T10:39:28.420Z,101524.13
2023-01-05T10:42:14.012Z,101518.00
2023-01-05T10:44:51.566Z,101512.84
2023-01-05T10:47:30.774Z,101507.56
2023-01-05T10:50:05.766Z,101495.69
2023-01-05T10:52:36.828Z,101500.59
2023-01-05T10:55:16.466Z,101500.38
2023-01-05T10:57:53.013Z,101497.88
2023-01-05T11:00:42.346Z,101507.69
2023-01-05T11:03:18.026Z,101493.69
2023-01-05T11:05:48.575Z,101488.38
2023-01-05T11:08:27.749Z,101491.72
2023-01-05T11:11:04.706Z,101486.88
2023-01-05T11:13:48.522Z,101488.41
2023-01-05T11:16:20.406Z,101480.97
2023-01-05T11:18:52.720Z,101477.34
2023-01-05T11:21:25.383Z,101475.97
2023-01-05T11:23:59.856Z,101471.78
2023-01-05T11:26:51.388Z,101472.97
2023-01-05T11:29:22.499Z,101476.94
2023-01-05T11:32:01.298Z,101468.47
2023-01-05T11:34:45.923Z,101463.63
2023-01-05T11:37:29.967Z,101466.03
2023-01-05T11:40:05.702Z,101457.06
2023-01-05T11:42:49.378Z,101453.06
2023-01-05T11:45:24.934Z,101448.66
2023-01-05T11:48:01.830Z,101453.81
2023-01-05T11:50:38.809Z,101442.03
2023-01-05T11:53:25.106Z,101446.47
2023-01-05T11:56:20.355Z,101442.84
2023-01-05T11:58:54.885Z,101436.22
2023-01-05T12:01:44.807Z,101432.19
2023-01-05T12:04:20.534Z,101439.16
2023-01-05T12:07:26.166Z,101431.88
2023-01-05T12:10:27.316Z,101431.81
2023-01-05T12:13:25.045Z,101419.63
2023-01-05T12:16:12.592Z,101422.91
2023-01-05T12:19:04.964Z,101420.06
2023-01-05T12:21:46.049Z,101419.31
2023-01-05T12:24:22.674Z,101414.84
2023-01-05T12:27:12.219Z,101414.41
2023-01-05T12:36:27.359Z,101420.38
2023-01-05T12:39:09.907Z,101408.66
2023-01-05T12:41:56.396Z,101405.06
2023-01-05T12:44:47.870Z,101407.16
2023-01-05T12:47:41.665Z,101416.84
2023-01-05T12:50:52.723Z,101400.28
2023-01-05T12:53:26.299Z,101400.66
2023-01-05T12:56:00.033Z,101400.22
2023-01-05T12:58:35.404Z,101394.19
2023-01-05T13:01:06.486Z,101392.63
2023-01-05T13:03:45.938Z,101393.38
2023-01-05T13:06:24.839Z,101395.00
2023-01-05T13:09:03.680Z,101387.63
2023-01-05T13:11:38.460Z,101373.59
2023-01-05T13:14:16.187Z,101368.38
2023-01-05T13:16:58.229Z,101374.53
2023-01-05T13:19:35.397Z,101377.28
2023-01-05T13:22:17.818Z,101375.28
2023-01-05T13:25:03.635Z,101371.25
2023-01-05T13:27:38.483Z,101372.81
2023-01-05T13:30:14.367Z,101375.22
2023-01-05T13:33:09.821Z,101371.56
2023-01-05T13:35:52.488Z,101360.97
2023-01-05T13:38:52.834Z,101366.47
2023-01-05T13:41:27.013Z,101369.34
2023-01-05T13:44:11.095Z,101364.03
2023-01-05T13:46:54.736Z,101363.22
2023-01-05T13:50:17.941Z,101372.97
2023-01-05T13:53:12.651Z,101358.47
2023-01-05T13:56:00.154Z,101353.63
2023-01-05T13:58:40.016Z,101359.28
2023-01-05T14:01:20.850Z,101366.22
2023-01-05T14:03:56.741Z,101361.38
2023-01-05T14:06:31.594Z,101369.09
2023-01-05T14:09:07.314Z,101364.16
2023-01-05T14:11:37.161Z,101363.75
2023-01-05T14:16:58.319Z,101365.03
2023-01-05T14:19:40.157Z,101377.97
2023-01-05T14:22:25.122Z,101379.06
2023-01-05T14:24:56.221Z,101373.94
2023-01-05T14:27:30.134Z,101376.63
2023-01-05T14:30:04.303Z,101375.38
2023-01-05T14:32:45.338Z,101369.06
2023-01-05T14:35:25.116Z,101377.09
2023-01-05T14:38:01.114Z,101372.69
2023-01-05T14:40:42.405Z,101379.56
2023-01-05T14:43:36.241Z,101382.75
2023-01-05T14:46:17.631Z,101384.09
2023-01-05T14:49:02.877Z,101383.31
2023-01-05T14:51:54.377Z,101383.31
2023-01-05T14:54:43.376Z,101378.31
2023-01-05T14:57:39.131Z,101388.72
2023-01-05T15:00:15.218Z,101388.72
2023-01-05T15:02:56.529Z,101385.94
2023-01-05T15:05:29.112Z,101382.75
2023-01-05T15:08:12.895Z,101386.78
2023-01-05T15:11:07.303Z,101389.28
2023-01-05T15:13:43.486Z,101394.06
2023-01-05T15:16:49.761Z,101396.16
2023-01-05T15:19:26.403Z,101401.44
2023-01-05T15:22:36.290Z,101393.53
2023-01-05T15:25:16.209Z,101396.78
2023-01-05T15:28:07.231Z,101399.63
2023-01-05T15:30:44.845Z,101393.56
2023-01-05T15:33:25.321Z,101399.19
2023-01-05T15:35:57.155Z,101401.53
2023-01-05T15:38:27.377Z,101410.97
2023-01-05T15:41:27.652Z,101398.44
2023-01-05T15:43:58.758Z,101395.88
2023-01-05T15:46:36.821Z,101409.28
2023-01-05T15:49:05.274Z,101406.56
2023-01-05T15:51:36.032Z,101409.47
2023-01-05T15:54:07.921Z,101405.38
2023-01-05T15:56:41.511Z,101414.19
2023-01-05T15:59:22.354Z,101413.03
2023-01-05T16:01:53.002Z,101411.72
2023-01-05T16:04:23.347Z,101407.00
2023-01-05T16:06:58.535Z,101403.28
2023-01-05T16:09:41.457Z,101408.28
2023-01-05T16:12:23.463Z,101405.00
2023-01-05T16:15:04.966Z,101419.66
2023-01-05T16:17:39.766Z,101430.63
2023-01-05T16:20:17.155Z,101427.31
2023-01-05T16:22:57.910Z,101426.13
2023-01-05T16:25:53.729Z,101425.09
2023-01-05T16:28:26.510Z,101427.81
2023-01-05T16:30:55.927Z,101429.84
2023-01-05T16:33:36.204Z,101425.63
2023-01-05T16:36:20.093Z,101433.81
